sensor_id;sensor_type;location;lat;lon;timestamp;pressure;altitude;pressure_sealevel;temperature;humidity
78892;BME280;68368;51.728;5.248;2024-01-10T00:00:30;103164.39;;;-4.96;59.49
78892;BME280;68368;51.728;5.248;2024-01-10T00:02:32;103154.21;;;-4.96;58.88
78892;BME280;68368;51.728;5.248;2024-01-10T00:04:35;103145.45;;;-4.93;58.58
78892;BME280;68368;51.728;5.248;2024-01-10T00:06:38;103146.52;;;-4.93;59.06
78892;BME280;68368;51.728;5.248;2024-01-10T00:08:41;103142.39;;;-4.95;58.74
78892;BME280;68368;51.728;5.248;2024-01-10T00:10:44;103139.03;;;-4.95;58.93
78892;BME280;68368;51.728;5.248;2024-01-10T00:12:47;103137.52;;;-4.97;58.91
78892;BME280;68368;51.728;5.248;2024-01-10T00:14:49;103138.73;;;-4.95;58.10
78892;BME280;68368;51.728;5.248;2024-01-10T00:16:52;103137.23;;;-4.94;58.94
78892;BME280;68368;51.728;5.248;2024-01-10T00:18:57;103134.35;;;-4.95;59.25
78892;BME280;68368;51.728;5.248;2024-01-10T00:20:59;103132.20;;;-4.98;59.51
78892;BME280;68368;51.728;5.248;2024-01-10T00:23:02;103137.89;;;-5.00;59.91
78892;BME280;68368;51.728;5.248;2024-01-10T00:25:09;103136.87;;;-5.02;59.93
78892;BME280;68368;51.728;5.248;2024-01-10T00:27:12;103135.14;;;-5.00;59.68
78892;BME280;68368;51.728;5.248;2024-01-10T00:29:15;103132.84;;;-5.01;60.19
78892;BME280;68368;51.728;5.248;2024-01-10T00:31:19;103132.49;;;-5.03;59.94
78892;BME280;68368;51.728;5.248;2024-01-10T00:33:22;103128.80;;;-5.05;60.11
78892;BME280;68368;51.728;5.248;2024-01-10T00:35:26;103130.97;;;-5.06;60.14
78892;BME280;68368;51.728;5.248;2024-01-10T00:37:31;103131.57;;;-5.05;60.32
78892;BME280;68368;51.728;5.248;2024-01-10T00:39:34;103129.34;;;-5.05;60.24
78892;BME280;68368;51.728;5.248;2024-01-10T00:41:39;103130.45;;;-5.06;60.00
78892;BME280;68368;51.728;5.248;2024-01-10T00:43:42;103130.52;;;-5.05;59.81
78892;BME280;68368;51.728;5.248;2024-01-10T00:45:46;103128.83;;;-5.05;59.73
78892;BME280;68368;51.728;5.248;2024-01-10T00:47:49;103124.67;;;-5.05;60.07
78892;BME280;68368;51.728;5.248;2024-01-10T00:49:53;103123.82;;;-5.06;60.80
78892;BME280;68368;51.728;5.248;2024-01-10T00:51:56;103125.27;;;-5.08;60.40
78892;BME280;68368;51.728;5.248;2024-01-10T00:53:58;103121.66;;;-5.07;60.43
78892;BME280;68368;51.728;5.248;2024-01-10T00:56:04;103126.59;;;-5.08;60.32
78892;BME280;68368;51.728;5.248;2024-01-10T00:58:07;103119.73;;;-5.10;60.96
78892;BME280;68368;51.728;5.248;2024-01-10T01:00:13;103117.71;;;-5.13;61.08
78892;BME280;68368;51.728;5.248;2024-01-10T01:02:17;103124.37;;;-5.16;61.30
78892;BME280;68368;51.728;5.248;2024-01-10T01:04:20;103123.36;;;-5.17;61.33
78892;BME280;68368;51.728;5.248;2024-01-10T01:06:23;103118.52;;;-5.19;60.88
78892;BME280;68368;51.728;5.248;2024-01-10T01:08:26;103117.89;;;-5.20;61.32
78892;BME280;68368;51.728;5.248;2024-01-10T01:10:29;103111.59;;;-5.23;61.46
78892;BME280;68368;51.728;5.248;2024-01-10T01:12:32;103113.73;;;-5.27;61.77
78892;BME280;68368;51.728;5.248;2024-01-10T01:14:35;103112.60;;;-5.27;61.62
78892;BME280;68368;51.728;5.248;2024-01-10T01:16:38;103114.97;;;-5.28;61.79
78892;BME280;68368;51.728;5.248;2024-01-10T01:18:41;103113.09;;;-5.28;61.28
78892;BME280;68368;51.728;5.248;2024-01-10T01:20:44;103114.92;;;-5.25;61.09
78892;BME280;68368;51.728;5.248;2024-01-10T01:22:47;103110.98;;;-5.24;61.83
78892;BME280;68368;51.728;5.248;2024-01-10T01:24:50;103115.83;;;-5.22;61.72
78892;BME280;68368;51.728;5.248;2024-01-10T01:26:53;103115.16;;;-5.22;61.99
78892;BME280;68368;51.728;5.248;2024-01-10T01:28:57;103106.81;;;-5.22;61.68
78892;BME280;68368;51.728;5.248;2024-01-10T01:31:02;103103.36;;;-5.22;61.77
78892;BME280;68368;51.728;5.248;2024-01-10T01:33:06;103107.45;;;-5.23;61.85
78892;BME280;68368;51.728;5.248;2024-01-10T01:35:13;103107.35;;;-5.24;61.90
78892;BME280;68368;51.728;5.248;2024-01-10T01:37:16;103110.34;;;-5.24;61.63
78892;BME280;68368;51.728;5.248;2024-01-10T01:39:19;103109.55;;;-5.23;61.86
78892;BME280;68368;51.728;5.248;2024-01-10T01:41:24;103110.16;;;-5.22;62.37
78892;BME280;68368;51.728;5.248;2024-01-10T01:43:30;103108.42;;;-5.24;62.35
78892;BME280;68368;51.728;5.248;2024-01-10T01:45:34;103105.66;;;-5.24;62.69
78892;BME280;68368;51.728;5.248;2024-01-10T01:47:39;103102.41;;;-5.25;62.57
78892;BME280;68368;51.728;5.248;2024-01-10T01:49:43;103103.77;;;-5.27;62.32
78892;BME280;68368;51.728;5.248;2024-01-10T01:51:46;103106.66;;;-5.30;63.07
78892;BME280;68368;51.728;5.248;2024-01-10T01:53:53;103109.61;;;-5.34;63.17
78892;BME280;68368;51.728;5.248;2024-01-10T01:55:57;103109.98;;;-5.35;63.39
78892;BME280;68368;51.728;5.248;2024-01-10T01:58:00;103102.04;;;-5.35;63.72
78892;BME280;68368;51.728;5.248;2024-01-10T02:00:06;103101.86;;;-5.35;64.02
78892;BME280;68368;51.728;5.248;2024-01-10T02:02:10;103100.52;;;-5.36;63.53
78892;BME280;68368;51.728;5.248;2024-01-10T02:04:14;103103.85;;;-5.36;63.79
78892;BME280;68368;51.728;5.248;2024-01-10T02:06:18;103101.01;;;-5.35;63.75
78892;BME280;68368;51.728;5.248;2024-01-10T02:08:21;103099.53;;;-5.36;64.24
78892;BME280;68368;51.728;5.248;2024-01-10T02:10:24;103102.23;;;-5.37;64.36
78892;BME280;68368;51.728;5.248;2024-01-10T02:12:27;103096.84;;;-5.37;64.31
78892;BME280;68368;51.728;5.248;2024-01-10T02:14:29;103099.48;;;-5.36;64.17
78892;BME280;68368;51.728;5.248;2024-01-10T02:16:33;103097.54;;;-5.37;64.17
78892;BME280;68368;51.728;5.248;2024-01-10T02:18:36;103090.08;;;-5.37;64.63
78892;BME280;68368;51.728;5.248;2024-01-10T02:20:43;103100.53;;;-5.40;64.95
78892;BME280;68368;51.728;5.248;2024-01-10T02:22:53;103096.88;;;-5.44;65.09
78892;BME280;68368;51.728;5.248;2024-01-10T02:24:57;103099.20;;;-5.45;65.08
78892;BME280;68368;51.728;5.248;2024-01-10T02:27:00;103100.80;;;-5.47;65.39
78892;BME280;68368;51.728;5.248;2024-01-10T02:29:06;103098.05;;;-5.49;65.46
78892;BME280;68368;51.728;5.248;2024-01-10T02:31:11;103100.13;;;-5.50;66.09
78892;BME280;68368;51.728;5.248;2024-01-10T02:33:13;103097.35;;;-5.50;65.63
78892;BME280;68368;51.728;5.248;2024-01-10T02:35:16;103099.45;;;-5.49;65.70
78892;BME280;68368;51.728;5.248;2024-01-10T02:37:20;103096.27;;;-5.45;65.63
78892;BME280;68368;51.728;5.248;2024-01-10T02:39:24;103093.54;;;-5.43;65.66
78892;BME280;68368;51.728;5.248;2024-01-10T02:41:27;103089.33;;;-5.45;65.84
78892;BME280;68368;51.728;5.248;2024-01-10T02:43:30;103092.25;;;-5.46;66.42
78892;BME280;68368;51.728;5.248;2024-01-10T02:45:35;103092.29;;;-5.47;66.51
78892;BME280;68368;51.728;5.248;2024-01-10T02:47:38;103090.36;;;-5.49;66.77
78892;BME280;68368;51.728;5.248;2024-01-10T02:49:41;103086.47;;;-5.52;67.03
78892;BME280;68368;51.728;5.248;2024-01-10T02:51:45;103081.81;;;-5.54;66.83
78892;BME280;68368;51.728;5.248;2024-01-10T02:53:48;103084.66;;;-5.55;67.19
78892;BME280;68368;51.728;5.248;2024-01-10T02:55:51;103082.02;;;-5.57;67.16
78892;BME280;68368;51.728;5.248;2024-01-10T02:57:55;103083.68;;;-5.58;67.65
78892;BME280;68368;51.728;5.248;2024-01-10T02:59:58;103082.83;;;-5.60;67.52
78892;BME280;68368;51.728;5.248;2024-01-10T03:02:02;103078.84;;;-5.62;68.12
78892;BME280;68368;51.728;5.248;2024-01-10T03:04:28;103076.38;;;-5.62;68.27
78892;BME280;68368;51.728;5.248;2024-01-10T03:06:31;103076.84;;;-5.63;68.38
78892;BME280;68368;51.728;5.248;2024-01-10T03:08:34;103078.17;;;-5.65;68.28
78892;BME280;68368;51.728;5.248;2024-01-10T03:10:37;103069.64;;;-5.67;68.56
78892;BME280;68368;51.728;5.248;2024-01-10T03:12:44;103072.89;;;-5.68;68.41
78892;BME280;68368;51.728;5.248;2024-01-10T03:14:47;103067.17;;;-5.68;68.39
78892;BME280;68368;51.728;5.248;2024-01-10T03:16:50;103064.92;;;-5.68;68.30
78892;BME280;68368;51.728;5.248;2024-01-10T03:18:53;103063.97;;;-5.70;68.37
78892;BME280;68368;51.728;5.248;2024-01-10T03:20:56;103059.39;;;-5.70;68.44
78892;BME280;68368;51.728;5.248;2024-01-10T03:23:01;103055.88;;;-5.71;68.35
78892;BME280;68368;51.728;5.248;2024-01-10T03:25:08;103059.69;;;-5.71;68.31
78892;BME280;68368;51.728;5.248;2024-01-10T03:27:11;103056.45;;;-5.70;68.33
78892;BME280;68368;51.728;5.248;2024-01-10T03:29:16;103056.98;;;-5.70;68.81
78892;BME280;68368;51.728;5.248;2024-01-10T03:31:20;103049.59;;;-5.70;68.99
78892;BME280;68368;51.728;5.248;2024-01-10T03:33:23;103054.18;;;-5.69;68.84
78892;BME280;68368;51.728;5.248;2024-01-10T03:35:26;103053.79;;;-5.69;68.86
78892;BME280;68368;51.728;5.248;2024-01-10T03:37:29;103046.17;;;-5.71;69.11
78892;BME280;68368;51.728;5.248;2024-01-10T03:39:35;103045.91;;;-5.72;68.66
78892;BME280;68368;51.728;5.248;2024-01-10T03:41:38;103040.75;;;-5.72;68.87
78892;BME280;68368;51.728;5.248;2024-01-10T03:43:42;103042.54;;;-5.71;69.18
78892;BME280;68368;51.728;5.248;2024-01-10T03:45:48;103047.98;;;-5.72;69.02
78892;BME280;68368;51.728;5.248;2024-01-10T03:47:50;103040.36;;;-5.72;68.69
78892;BME280;68368;51.728;5.248;2024-01-10T03:49:53;103037.61;;;-5.72;68.92
78892;BME280;68368;51.728;5.248;2024-01-10T03:51:56;103034.74;;;-5.73;68.27
78892;BME280;68368;51.728;5.248;2024-01-10T03:53:59;103039.16;;;-5.72;67.47
78892;BME280;68368;51.728;5.248;2024-01-10T03:56:10;103035.67;;;-5.71;67.93
78892;BME280;68368;51.728;5.248;2024-01-10T03:58:12;103037.14;;;-5.70;67.69
78892;BME280;68368;51.728;5.248;2024-01-10T04:00:19;103038.93;;;-5.69;68.03
78892;BME280;68368;51.728;5.248;2024-01-10T04:02:25;103032.52;;;-5.67;67.74
78892;BME280;68368;51.728;5.248;2024-01-10T04:04:28;103029.69;;;-5.64;68.12
78892;BME280;68368;51.728;5.248;2024-01-10T04:06:32;103022.05;;;-5.64;68.95
78892;BME280;68368;51.728;5.248;2024-01-10T04:08:37;103023.35;;;-5.65;69.17
78892;BME280;68368;51.728;5.248;2024-01-10T04:10:40;103026.14;;;-5.66;69.16
78892;BME280;68368;51.728;5.248;2024-01-10T04:12:44;103022.40;;;-5.68;69.60
78892;BME280;68368;51.728;5.248;2024-01-10T04:14:47;103015.91;;;-5.69;69.63
78892;BME280;68368;51.728;5.248;2024-01-10T04:16:54;103016.52;;;-5.72;70.00
78892;BME280;68368;51.728;5.248;2024-01-10T04:18:59;103014.81;;;-5.76;70.38
78892;BME280;68368;51.728;5.248;2024-01-10T04:21:03;103009.99;;;-5.77;70.38
78892;BME280;68368;51.728;5.248;2024-01-10T04:23:09;103013.35;;;-5.77;70.82
78892;BME280;68368;51.728;5.248;2024-01-10T04:25:12;103018.48;;;-5.77;71.00
78892;BME280;68368;51.728;5.248;2024-01-10T04:27:15;103018.27;;;-5.77;71.10
78892;BME280;68368;51.728;5.248;2024-01-10T04:29:21;103016.30;;;-5.78;71.38
78892;BME280;68368;51.728;5.248;2024-01-10T04:31:28;103018.89;;;-5.78;71.73
78892;BME280;68368;51.728;5.248;2024-01-10T04:33:31;103015.20;;;-5.81;71.80
78892;BME280;68368;51.728;5.248;2024-01-10T04:35:34;103015.02;;;-5.84;71.99
78892;BME280;68368;51.728;5.248;2024-01-10T04:37:38;103014.00;;;-5.88;72.24
78892;BME280;68368;51.728;5.248;2024-01-10T04:39:42;103015.85;;;-5.91;72.19
78892;BME280;68368;51.728;5.248;2024-01-10T04:41:47;103015.33;;;-5.93;72.13
78892;BME280;68368;51.728;5.248;2024-01-10T04:43:53;103013.27;;;-5.95;72.25
78892;BME280;68368;51.728;5.248;2024-01-10T04:45:55;103010.80;;;-5.95;72.44
78892;BME280;68368;51.728;5.248;2024-01-10T04:47:59;103012.56;;;-5.95;72.58
78892;BME280;68368;51.728;5.248;2024-01-10T04:50:02;103010.47;;;-5.97;72.60
78892;BME280;68368;51.728;5.248;2024-01-10T04:52:07;103010.31;;;-5.99;72.56
78892;BME280;68368;51.728;5.248;2024-01-10T04:54:12;103008.30;;;-6.00;72.85
78892;BME280;68368;51.728;5.248;2024-01-10T04:56:15;103008.91;;;-6.03;72.82
78892;BME280;68368;51.728;5.248;2024-01-10T04:58:19;103004.67;;;-6.05;73.35
78892;BME280;68368;51.728;5.248;2024-01-10T05:00:22;103002.02;;;-6.06;73.40
78892;BME280;68368;51.728;5.248;2024-01-10T05:02:25;103003.29;;;-6.07;73.37
78892;BME280;68368;51.728;5.248;2024-01-10T05:04:28;103004.62;;;-6.09;73.63
78892;BME280;68368;51.728;5.248;2024-01-10T05:06:32;103005.89;;;-6.13;73.73
78892;BME280;68368;51.728;5.248;2024-01-10T05:08:36;103008.98;;;-6.15;74.19
78892;BME280;68368;51.728;5.248;2024-01-10T05:10:39;103006.99;;;-6.16;74.22
78892;BME280;68368;51.728;5.248;2024-01-10T05:12:43;103010.50;;;-6.17;74.32
78892;BME280;68368;51.728;5.248;2024-01-10T05:14:46;103011.74;;;-6.19;74.52
78892;BME280;68368;51.728;5.248;2024-01-10T05:16:50;103016.10;;;-6.19;74.41
78892;BME280;68368;51.728;5.248;2024-01-10T05:18:53;103008.05;;;-6.19;74.71
78892;BME280;68368;51.728;5.248;2024-01-10T05:20:57;103010.55;;;-6.19;74.87
78892;BME280;68368;51.728;5.248;2024-01-10T05:23:04;103010.23;;;-6.20;74.88
78892;BME280;68368;51.728;5.248;2024-01-10T05:25:09;103005.58;;;-6.22;74.70
78892;BME280;68368;51.728;5.248;2024-01-10T05:27:12;103003.35;;;-6.24;74.72
78892;BME280;68368;51.728;5.248;2024-01-10T05:29:17;103007.73;;;-6.27;74.77
78892;BME280;68368;51.728;5.248;2024-01-10T05:31:23;103007.84;;;-6.29;74.96
78892;BME280;68368;51.728;5.248;2024-01-10T05:33:26;103010.72;;;-6.30;75.14
78892;BME280;68368;51.728;5.248;2024-01-10T05:35:29;103006.00;;;-6.30;75.42
78892;BME280;68368;51.728;5.248;2024-01-10T05:37:32;103004.80;;;-6.32;75.19
78892;BME280;68368;51.728;5.248;2024-01-10T05:39:35;103008.86;;;-6.35;75.40
78892;BME280;68368;51.728;5.248;2024-01-10T05:41:37;103011.33;;;-6.38;75.64
78892;BME280;68368;51.728;5.248;2024-01-10T05:43:41;103009.50;;;-6.39;75.95
78892;BME280;68368;51.728;5.248;2024-01-10T05:45:44;103008.16;;;-6.41;75.89
78892;BME280;68368;51.728;5.248;2024-01-10T05:47:47;103008.11;;;-6.40;75.38
78892;BME280;68368;51.728;5.248;2024-01-10T05:49:51;103011.02;;;-6.38;75.53
78892;BME280;68368;51.728;5.248;2024-01-10T05:51:55;103005.91;;;-6.37;75.47
78892;BME280;68368;51.728;5.248;2024-01-10T05:53:59;103001.76;;;-6.39;75.31
78892;BME280;68368;51.728;5.248;2024-01-10T05:56:05;102996.48;;;-6.40;75.61
78892;BME280;68368;51.728;5.248;2024-01-10T05:58:08;103002.64;;;-6.40;76.04
78892;BME280;68368;51.728;5.248;2024-01-10T06:00:16;102999.21;;;-6.42;75.71
78892;BME280;68368;51.728;5.248;2024-01-10T06:02:18;103005.11;;;-6.44;75.99
78892;BME280;68368;51.728;5.248;2024-01-10T06:04:22;103005.03;;;-6.45;75.66
78892;BME280;68368;51.728;5.248;2024-01-10T06:06:28;103005.52;;;-6.45;75.58
78892;BME280;68368;51.728;5.248;2024-01-10T06:08:31;103000.86;;;-6.45;75.79
78892;BME280;68368;51.728;5.248;2024-01-10T06:10:37;103002.16;;;-6.46;75.67
78892;BME280;68368;51.728;5.248;2024-01-10T06:12:39;103003.67;;;-6.48;75.78
78892;BME280;68368;51.728;5.248;2024-01-10T06:14:42;103006.80;;;-6.51;75.95
78892;BME280;68368;51.728;5.248;2024-01-10T06:16:45;103005.89;;;-6.56;75.89
78892;BME280;68368;51.728;5.248;2024-01-10T06:18:49;103001.69;;;-6.56;76.40
78892;BME280;68368;51.728;5.248;2024-01-10T06:20:52;103004.02;;;-6.57;76.42
78892;BME280;68368;51.728;5.248;2024-01-10T06:22:55;103005.55;;;-6.57;76.50
78892;BME280;68368;51.728;5.248;2024-01-10T06:24:57;103008.26;;;-6.58;76.36
78892;BME280;68368;51.728;5.248;2024-01-10T06:27:00;103008.28;;;-6.60;76.43
78892;BME280;68368;51.728;5.248;2024-01-10T06:29:03;103008.45;;;-6.62;76.75
78892;BME280;68368;51.728;5.248;2024-01-10T06:31:07;103008.87;;;-6.65;76.45
78892;BME280;68368;51.728;5.248;2024-01-10T06:33:10;103011.88;;;-6.67;76.86
78892;BME280;68368;51.728;5.248;2024-01-10T06:35:14;103010.77;;;-6.68;77.04
78892;BME280;68368;51.728;5.248;2024-01-10T06:37:17;103011.09;;;-6.69;77.21
78892;BME280;68368;51.728;5.248;2024-01-10T06:39:19;103013.73;;;-6.70;77.46
78892;BME280;68368;51.728;5.248;2024-01-10T06:41:23;103017.05;;;-6.69;77.50
78892;BME280;68368;51.728;5.248;2024-01-10T06:43:26;103013.10;;;-6.71;77.40
78892;BME280;68368;51.728;5.248;2024-01-10T06:45:33;103010.04;;;-6.73;77.72
78892;BME280;68368;51.728;5.248;2024-01-10T06:47:35;103010.56;;;-6.72;77.90
78892;BME280;68368;51.728;5.248;2024-01-10T06:49:38;103003.30;;;-6.74;77.77
78892;BME280;68368;51.728;5.248;2024-01-10T06:51:41;103003.36;;;-6.75;78.12
78892;BME280;68368;51.728;5.248;2024-01-10T06:53:44;103001.13;;;-6.73;78.46
78892;BME280;68368;51.728;5.248;2024-01-10T06:55:47;103000.64;;;-6.71;78.61
78892;BME280;68368;51.728;5.248;2024-01-10T06:57:50;102995.80;;;-6.69;78.16
78892;BME280;68368;51.728;5.248;2024-01-10T06:59:54;102994.27;;;-6.69;78.47
78892;BME280;68368;51.728;5.248;2024-01-10T07:01:57;102999.65;;;-6.69;78.27
78892;BME280;68368;51.728;5.248;2024-01-10T07:04:00;103001.65;;;-6.69;78.24
78892;BME280;68368;51.728;5.248;2024-01-10T07:06:05;103000.54;;;-6.70;78.42
78892;BME280;68368;51.728;5.248;2024-01-10T07:08:08;102999.82;;;-6.71;78.48
78892;BME280;68368;51.728;5.248;2024-01-10T07:10:11;102997.64;;;-6.70;78.09
78892;BME280;68368;51.728;5.248;2024-01-10T07:12:14;102996.94;;;-6.69;78.02
78892;BME280;68368;51.728;5.248;2024-01-10T07:14:17;102999.11;;;-6.67;78.04
78892;BME280;68368;51.728;5.248;2024-01-10T07:16:20;103000.20;;;-6.67;78.04
78892;BME280;68368;51.728;5.248;2024-01-10T07:18:23;102999.27;;;-6.66;78.13
78892;BME280;68368;51.728;5.248;2024-01-10T07:20:26;103003.00;;;-6.65;77.87
78892;BME280;68368;51.728;5.248;2024-01-10T07:22:29;103004.83;;;-6.64;77.40
78892;BME280;68368;51.728;5.248;2024-01-10T07:24:31;103006.14;;;-6.63;77.60
78892;BME280;68368;51.728;5.248;2024-01-10T07:26:34;103013.56;;;-6.61;77.16
78892;BME280;68368;51.728;5.248;2024-01-10T07:28:37;103006.30;;;-6.59;76.89
78892;BME280;68368;51.728;5.248;2024-01-10T07:30:40;103008.38;;;-6.55;76.73
78892;BME280;68368;51.728;5.248;2024-01-10T07:32:43;103012.29;;;-6.52;76.77
78892;BME280;68368;51.728;5.248;2024-01-10T07:34:46;103013.36;;;-6.51;76.75
78892;BME280;68368;51.728;5.248;2024-01-10T07:36:49;103018.35;;;-6.50;76.71
78892;BME280;68368;51.728;5.248;2024-01-10T07:38:52;103022.48;;;-6.48;76.35
78892;BME280;68368;51.728;5.248;2024-01-10T07:40:55;103030.76;;;-6.46;76.55
78892;BME280;68368;51.728;5.248;2024-01-10T07:42:58;103026.89;;;-6.47;76.22
78892;BME280;68368;51.728;5.248;2024-01-10T07:45:01;103028.51;;;-6.47;76.45
78892;BME280;68368;51.728;5.248;2024-01-10T07:47:05;103029.52;;;-6.47;76.78
78892;BME280;68368;51.728;5.248;2024-01-10T07:49:08;103025.22;;;-6.47;77.13
78892;BME280;68368;51.728;5.248;2024-01-10T07:51:10;103021.77;;;-6.47;77.25
78892;BME280;68368;51.728;5.248;2024-01-10T07:53:13;103012.23;;;-6.47;77.48
78892;BME280;68368;51.728;5.248;2024-01-10T07:55:16;103012.71;;;-6.48;77.57
78892;BME280;68368;51.728;5.248;2024-01-10T07:57:19;103011.48;;;-6.46;77.94
78892;BME280;68368;51.728;5.248;2024-01-10T07:59:22;103009.84;;;-6.45;77.75
78892;BME280;68368;51.728;5.248;2024-01-10T08:01:25;103005.23;;;-6.43;77.53
78892;BME280;68368;51.728;5.248;2024-01-10T08:03:27;103002.30;;;-6.36;76.89
78892;BME280;68368;51.728;5.248;2024-01-10T08:05:44;103004.94;;;-6.29;76.87
78892;BME280;68368;51.728;5.248;2024-01-10T08:07:47;103004.75;;;-6.20;76.52
78892;BME280;68368;51.728;5.248;2024-01-10T08:09:50;103000.43;;;-6.08;76.25
78892;BME280;68368;51.728;5.248;2024-01-10T08:11:53;103008.73;;;-5.99;75.71
78892;BME280;68368;51.728;5.248;2024-01-10T08:13:56;103005.71;;;-5.92;75.48
78892;BME280;68368;51.728;5.248;2024-01-10T08:15:59;102998.06;;;-5.85;74.85
78892;BME280;68368;51.728;5.248;2024-01-10T08:18:02;102999.08;;;-5.77;74.56
78892;BME280;68368;51.728;5.248;2024-01-10T08:20:07;102994.92;;;-5.74;74.05
78892;BME280;68368;51.728;5.248;2024-01-10T08:22:13;102995.27;;;-5.66;74.01
78892;BME280;68368;51.728;5.248;2024-01-10T08:24:15;102997.10;;;-5.59;73.77
78892;BME280;68368;51.728;5.248;2024-01-10T08:26:18;103002.58;;;-5.52;73.30
78892;BME280;68368;51.728;5.248;2024-01-10T08:28:21;103003.84;;;-5.43;72.35
78892;BME280;68368;51.728;5.248;2024-01-10T08:30:24;103004.28;;;-5.35;72.05
78892;BME280;68368;51.728;5.248;2024-01-10T08:32:27;103005.68;;;-5.25;71.62
78892;BME280;68368;51.728;5.248;2024-01-10T08:34:30;103004.67;;;-5.16;70.98
78892;BME280;68368;51.728;5.248;2024-01-10T08:36:33;103007.09;;;-5.09;70.35
78892;BME280;68368;51.728;5.248;2024-01-10T08:38:36;103005.88;;;-5.01;70.35
78892;BME280;68368;51.728;5.248;2024-01-10T08:40:39;103005.86;;;-4.93;69.98
78892;BME280;68368;51.728;5.248;2024-01-10T08:42:44;103005.88;;;-4.83;70.03
78892;BME280;68368;51.728;5.248;2024-01-10T08:44:46;102997.59;;;-4.74;69.40
78892;BME280;68368;51.728;5.248;2024-01-10T08:46:49;103002.09;;;-4.69;68.33
78892;BME280;68368;51.728;5.248;2024-01-10T08:48:52;103004.08;;;-4.60;68.26
78892;BME280;68368;51.728;5.248;2024-01-10T08:50:55;102988.73;;;-4.52;67.72
78892;BME280;68368;51.728;5.248;2024-01-10T08:52:58;102986.47;;;-4.45;67.53
78892;BME280;68368;51.728;5.248;2024-01-10T08:55:01;102984.53;;;-4.39;66.53
78892;BME280;68368;51.728;5.248;2024-01-10T08:57:05;102986.13;;;-4.32;66.62
78892;BME280;68368;51.728;5.248;2024-01-10T08:59:07;102989.36;;;-4.27;65.87
78892;BME280;68368;51.728;5.248;2024-01-10T09:01:10;102989.85;;;-4.21;65.53
78892;BME280;68368;51.728;5.248;2024-01-10T09:03:14;102991.74;;;-4.13;65.69
78892;BME280;68368;51.728;5.248;2024-01-10T09:05:17;102992.19;;;-4.05;65.42
78892;BME280;68368;51.728;5.248;2024-01-10T09:07:19;102993.87;;;-4.00;65.17
78892;BME280;68368;51.728;5.248;2024-01-10T09:09:22;102997.42;;;-3.95;64.94
78892;BME280;68368;51.728;5.248;2024-01-10T09:11:25;103002.29;;;-3.89;64.82
78892;BME280;68368;51.728;5.248;2024-01-10T09:13:31;103006.25;;;-3.80;64.89
78892;BME280;68368;51.728;5.248;2024-01-10T09:15:34;103008.91;;;-3.75;64.00
78892;BME280;68368;51.728;5.248;2024-01-10T09:17:37;103008.47;;;-3.70;63.79
78892;BME280;68368;51.728;5.248;2024-01-10T09:19:39;103008.89;;;-3.65;63.75
78892;BME280;68368;51.728;5.248;2024-01-10T09:21:42;103006.05;;;-3.60;63.24
78892;BME280;68368;51.728;5.248;2024-01-10T09:23:45;103014.09;;;-3.53;63.29
78892;BME280;68368;51.728;5.248;2024-01-10T09:25:48;103012.80;;;-3.47;62.76
78892;BME280;68368;51.728;5.248;2024-01-10T09:27:50;103016.13;;;-3.40;62.82
78892;BME280;68368;51.728;5.248;2024-01-10T09:29:54;103021.45;;;-3.32;62.91
78892;BME280;68368;51.728;5.248;2024-01-10T09:31:56;103020.16;;;-3.25;62.47
78892;BME280;68368;51.728;5.248;2024-01-10T09:34:02;103021.70;;;-3.17;62.48
78892;BME280;68368;51.728;5.248;2024-01-10T09:36:07;103020.16;;;-3.12;61.99
78892;BME280;68368;51.728;5.248;2024-01-10T09:38:10;103022.02;;;-3.08;61.35
78892;BME280;68368;51.728;5.248;2024-01-10T09:40:15;103024.25;;;-3.06;60.71
78892;BME280;68368;51.728;5.248;2024-01-10T09:42:18;103027.27;;;-3.03;60.54
78892;BME280;68368;51.728;5.248;2024-01-10T09:44:21;103030.67;;;-2.98;60.80
78892;BME280;68368;51.728;5.248;2024-01-10T09:46:25;103031.77;;;-2.93;60.62
78892;BME280;68368;51.728;5.248;2024-01-10T09:48:31;103027.00;;;-2.89;60.07
78892;BME280;68368;51.728;5.248;2024-01-10T09:50:33;103024.88;;;-2.83;60.67
78892;BME280;68368;51.728;5.248;2024-01-10T09:52:44;103029.69;;;-2.76;60.51
78892;BME280;68368;51.728;5.248;2024-01-10T09:54:54;103027.14;;;-2.68;60.31
78892;BME280;68368;51.728;5.248;2024-01-10T09:56:58;103026.01;;;-2.62;59.94
78892;BME280;68368;51.728;5.248;2024-01-10T09:59:02;103029.92;;;-2.57;59.55
78892;BME280;68368;51.728;5.248;2024-01-10T10:01:07;103022.87;;;-2.54;58.95
78892;BME280;68368;51.728;5.248;2024-01-10T10:03:10;103019.93;;;-2.53;58.59
78892;BME280;68368;51.728;5.248;2024-01-10T10:05:16;103021.50;;;-2.51;59.00
78892;BME280;68368;51.728;5.248;2024-01-10T10:07:19;103024.06;;;-2.45;59.29
78892;BME280;68368;51.728;5.248;2024-01-10T10:09:22;103024.39;;;-2.39;59.51
78892;BME280;68368;51.728;5.248;2024-01-10T10:11:26;103019.98;;;-2.35;58.71
78892;BME280;68368;51.728;5.248;2024-01-10T10:13:30;103016.10;;;-2.31;58.41
78892;BME280;68368;51.728;5.248;2024-01-10T10:15:33;103013.02;;;-2.28;58.25
78892;BME280;68368;51.728;5.248;2024-01-10T10:17:36;103011.02;;;-2.27;57.79
78892;BME280;68368;51.728;5.248;2024-01-10T10:19:38;103011.27;;;-2.26;57.55
78892;BME280;68368;51.728;5.248;2024-01-10T10:21:41;103014.05;;;-2.26;57.45
78892;BME280;68368;51.728;5.248;2024-01-10T10:23:58;103013.22;;;-2.23;57.64
78892;BME280;68368;51.728;5.248;2024-01-10T10:26:12;103009.30;;;-2.20;57.44
78892;BME280;68368;51.728;5.248;2024-01-10T10:28:16;103009.98;;;-2.13;57.79
78892;BME280;68368;51.728;5.248;2024-01-10T10:30:19;103013.88;;;-2.08;57.69
78892;BME280;68368;51.728;5.248;2024-01-10T10:32:22;103007.77;;;-2.06;56.90
78892;BME280;68368;51.728;5.248;2024-01-10T10:34:31;103011.51;;;-2.02;56.91
78892;BME280;68368;51.728;5.248;2024-01-10T10:36:34;103008.15;;;-1.98;56.06
78892;BME280;68368;51.728;5.248;2024-01-10T10:38:39;103007.19;;;-1.95;55.01
78892;BME280;68368;51.728;5.248;2024-01-10T10:40:42;103004.05;;;-1.93;54.22
78892;BME280;68368;51.728;5.248;2024-01-10T10:42:47;103001.17;;;-1.89;54.56
78892;BME280;68368;51.728;5.248;2024-01-10T10:44:51;103000.59;;;-1.85;54.45
78892;BME280;68368;51.728;5.248;2024-01-10T10:46:58;103001.47;;;-1.83;53.47